Time;durP1;ratioP1;P1;durP2;ratioP2;P2;SDS_P1;SDS_P2;PMS_P1;PMS_P2;Temp;Humidity;BMP_temperature;BMP_pressure;BME280_temperature;BME280_humidity;BME280_pressure;Samples;Min_cycle;Max_cycle;Signal;HPM_P1;HPM_P2
2022/01/25 00:33:24;;;;;;;26.65;11.13;;;5.60;58.50;;;;;;6318015;28;20041;-69
2022/01/25 00:36:27;;;;;;;28.90;12.15;;;5.60;58.60;;;;;;6317360;28;20039;-69
2022/01/25 00:39:28;;;;;;;23.30;10.65;;;5.50;58.70;;;;;;6282380;28;20078;-69
2022/01/25 00:42:29;;;;;;;26.33;12.52;;;5.50;58.80;;;;;;6316038;28;20036;-69
2022/01/25 00:45:30;;;;;;;30.23;11.52;;;5.50;58.90;;;;;;6282683;28;20020;-69
2022/01/25 00:48:43;;;;;;;28.65;10.88;;;5.50;59.00;;;;;;6316298;28;20373;-70
2022/01/25 00:54:48;;;;;;;29.13;12.40;;;5.50;59.10;;;;;;6299703;28;20020;-70
2022/01/25 00:57:50;;;;;;;28.27;11.45;;;5.50;59.20;;;;;;6292971;28;20032;-71
2022/01/25 01:00:51;;;;;;;26.80;12.00;;;5.40;59.20;;;;;;6299660;28;20036;-70
2022/01/25 01:03:53;;;;;;;34.42;13.35;;;5.40;59.30;;;;;;6317693;28;20099;-70
2022/01/25 01:06:55;;;;;;;25.52;9.93;;;5.40;60.00;;;;;;6317254;28;20081;-70
2022/01/25 01:09:58;;;;;;;32.10;12.73;;;5.30;59.40;;;;;;6295404;28;20028;-70
2022/01/25 01:13:46;;;;;;;35.70;11.32;;;5.30;59.50;;;;;;6316889;28;20028;-70
2022/01/25 01:30:27;;;;;;;25.90;11.18;;;5.30;59.90;;;;;;6299378;28;20020;-70
2022/01/25 01:46:44;;;;;;;26.23;12.48;;;5.20;59.80;;;;;;6194766;28;20181;-70
2022/01/25 01:49:45;;;;;;;26.20;10.82;;;5.20;59.90;;;;;;6178003;28;20030;-70
2022/01/25 01:52:46;;;;;;;28.02;10.90;;;5.20;60.00;;;;;;6178864;28;20049;-70
2022/01/25 01:55:47;;;;;;;31.27;10.98;;;5.20;60.10;;;;;;6194008;28;20117;-69
2022/01/25 01:58:52;;;;;;;39.63;11.93;;;5.20;60.20;;;;;;6181479;28;20444;-70
2022/01/25 02:01:56;;;;;;;25.73;11.55;;;5.10;60.30;;;;;;6175354;28;20062;-70
2022/01/25 02:04:57;;;;;;;34.00;10.40;;;5.10;60.40;;;;;;6162210;28;20076;-70
2022/01/25 02:08:00;;;;;;;36.47;11.15;;;5.10;60.50;;;;;;6194404;28;20104;-70
2022/01/25 02:11:03;;;;;;;21.05;11.30;;;5.10;60.50;;;;;;6177803;28;20355;-70
2022/01/25 02:14:08;;;;;;;30.58;11.77;;;5.10;60.70;;;;;;6258357;28;20032;-70
2022/01/25 02:17:36;;;;;;;33.03;12.23;;;5.00;60.70;;;;;;6302407;28;20036;-70
2022/01/25 02:23:52;;;;;;;24.45;10.52;;;4.90;61.10;;;;;;6318526;28;20044;-69
2022/01/25 02:26:56;;;;;;;32.85;11.85;;;4.90;61.20;;;;;;6319159;28;20020;-70
2022/01/25 02:29:57;;;;;;;21.20;10.18;;;4.90;61.20;;;;;;6302472;28;20099;-69
2022/01/25 02:32:58;;;;;;;32.80;11.80;;;4.90;61.30;;;;;;6320531;28;20038;-70
2022/01/25 02:36:02;;;;;;;31.92;10.68;;;4.90;61.30;;;;;;6302597;28;20032;-71
2022/01/25 02:39:03;;;;;;;33.25;10.95;;;4.90;62.10;;;;;;6318845;28;20387;-69
2022/01/25 02:42:05;;;;;;;34.47;12.20;;;4.90;62.00;;;;;;6301851;28;20032;-70
2022/01/25 02:45:11;;;;;;;30.23;11.63;;;4.90;61.30;;;;;;6318915;28;20031;-70
2022/01/25 02:48:30;;;;;;;30.63;11.88;;;4.80;61.30;;;;;;6318183;28;20035;-71
2022/01/25 02:51:34;;;;;;;24.13;10.73;;;4.80;61.40;;;;;;6318752;28;20024;-69
2022/01/25 02:54:38;;;;;;;24.45;11.18;;;4.80;61.50;;;;;;6319426;28;20039;-69
2022/01/25 02:57:39;;;;;;;27.08;12.88;;;4.80;61.50;;;;;;6300790;28;20032;-69
2022/01/25 03:00:40;;;;;;;33.72;10.88;;;4.70;61.40;;;;;;6318708;28;20512;-70
2022/01/25 03:03:42;;;;;;;27.02;11.63;;;4.70;61.60;;;;;;6301576;28;20057;-71
2022/01/25 03:06:43;;;;;;;26.75;11.38;;;4.70;61.60;;;;;;6301584;28;20378;-69
2022/01/25 03:09:45;;;;;;;27.05;11.93;;;4.70;61.60;;;;;;6312752;28;20070;-69
2022/01/25 03:12:52;;;;;;;26.25;10.45;;;4.70;61.70;;;;;;6319053;28;20042;-70
2022/01/25 03:16:04;;;;;;;23.10;11.27;;;4.60;61.70;;;;;;6285015;28;20044;-69
2022/01/25 03:22:44;;;;;;;30.48;11.57;;;4.60;61.90;;;;;;6318927;28;20032;-71
2022/01/25 03:25:47;;;;;;;26.70;12.02;;;4.60;61.80;;;;;;6317989;28;20043;-71
2022/01/25 03:28:49;;;;;;;25.42;12.40;;;4.60;62.00;;;;;;6319032;28;20069;-70
2022/01/25 03:31:50;;;;;;;26.20;10.50;;;4.50;61.90;;;;;;6300976;28;20031;-70
2022/01/25 03:34:51;;;;;;;32.42;11.40;;;4.50;62.00;;;;;;6300545;28;20024;-71
2022/01/25 03:37:52;;;;;;;32.33;12.10;;;4.50;62.10;;;;;;6298050;28;20492;-70
2022/01/25 03:40:54;;;;;;;23.05;11.25;;;4.50;62.10;;;;;;6300699;28;20028;-69
2022/01/25 03:43:56;;;;;;;31.80;11.70;;;4.40;62.10;;;;;;6318438;28;20447;-70
2022/01/25 03:47:04;;;;;;;43.05;11.77;;;4.40;62.30;;;;;;6318616;28;20096;-71
2022/01/25 03:50:05;;;;;;;27.83;11.20;;;4.40;62.40;;;;;;6300668;28;20031;-70
2022/01/25 03:53:07;;;;;;;21.45;9.88;;;4.30;62.40;;;;;;6300518;28;20055;-70
2022/01/25 03:56:08;;;;;;;28.40;9.60;;;4.30;62.50;;;;;;6317559;28;20077;-69
2022/01/25 03:59:10;;;;;;;27.67;9.52;;;4.30;62.60;;;;;;6298933;28;20036;-69
2022/01/25 04:02:11;;;;;;;29.42;10.77;;;4.30;62.70;;;;;;6300279;28;20479;-70
2022/01/25 04:05:20;;;;;;;24.98;10.07;;;4.30;62.70;;;;;;6300239;28;20024;-70
2022/01/25 04:08:22;;;;;;;27.50;12.05;;;4.30;62.70;;;;;;6313507;28;20123;-69
2022/01/25 04:11:23;;;;;;;35.10;13.40;;;4.30;62.80;;;;;;6300275;28;20032;-69
2022/01/25 04:14:24;;;;;;;35.42;10.80;;;4.30;62.90;;;;;;6317617;28;20043;-69
2022/01/25 04:17:25;;;;;;;24.90;9.90;;;4.30;62.90;;;;;;6299884;28;20031;-70
2022/01/25 04:20:31;;;;;;;18.83;10.30;;;4.30;62.80;;;;;;6283238;28;20039;-69
2022/01/25 04:26:53;;;;;;;28.63;9.55;;;4.30;63.00;;;;;;6312993;28;20047;-69
2022/01/25 04:29:54;;;;;;;27.00;11.05;;;4.20;63.00;;;;;;6317743;28;20464;-71
2022/01/25 04:33:01;;;;;;;27.08;11.10;;;4.20;63.10;;;;;;6311258;28;20020;-69
2022/01/25 04:49:27;;;;;;;22.15;9.48;;;4.20;63.20;;;;;;6316368;28;20517;-69
2022/01/25 04:52:33;;;;;;;32.33;11.85;;;4.20;63.20;;;;;;6282922;28;20441;-70
2022/01/25 04:56:04;;;;;;;24.50;10.25;;;4.20;63.20;;;;;;6316183;28;20040;-71
2022/01/25 05:05:38;;;;;;;36.38;11.77;;;4.10;63.30;;;;;;6222960;28;20038;-69
2022/01/25 05:08:45;;;;;;;30.77;11.43;;;4.20;63.30;;;;;;6237446;28;20108;-69
2022/01/25 05:11:48;;;;;;;24.85;11.13;;;4.20;63.40;;;;;;6241229;28;20356;-70
2022/01/25 05:14:59;;;;;;;23.58;9.73;;;4.20;63.40;;;;;;6228069;28;20106;-70
2022/01/25 05:24:24;;;;;;;28.02;14.32;;;4.20;63.20;;;;;;6243317;28;20363;-69
2022/01/25 05:27:30;;;;;;;24.17;9.93;;;4.10;63.30;;;;;;6227747;28;20030;-71
2022/01/25 05:30:31;;;;;;;21.35;11.80;;;4.10;63.30;;;;;;6227394;28;20394;-68
2022/01/25 05:33:33;;;;;;;26.30;10.90;;;4.10;63.30;;;;;;6227523;28;20051;-70
2022/01/25 05:36:34;;;;;;;33.63;11.27;;;4.10;63.40;;;;;;6243883;28;20068;-71
2022/01/25 05:39:37;;;;;;;25.30;11.65;;;4.10;63.30;;;;;;6221729;28;20034;-69
2022/01/25 05:49:06;;;;;;;27.27;11.07;;;3.90;63.40;;;;;;6321224;28;20016;-69
2022/01/25 05:52:09;;;;;;;30.98;12.18;;;3.90;63.70;;;;;;6320112;28;20107;-69
2022/01/25 05:55:11;;;;;;;23.92;10.82;;;3.90;63.90;;;;;;6320649;28;20020;-69
2022/01/25 05:58:12;;;;;;;42.47;10.60;;;3.90;63.90;;;;;;6300021;28;20032;-69
2022/01/25 06:01:13;;;;;;;25.42;10.15;;;3.90;63.90;;;;;;6300331;28;20510;-70
2022/01/25 06:04:14;;;;;;;26.92;9.90;;;3.90;63.90;;;;;;6319820;28;20028;-70
2022/01/25 06:07:15;;;;;;;28.38;10.07;;;3.90;64.00;;;;;;6303379;28;20034;-70
2022/01/25 06:10:16;;;;;;;26.10;11.02;;;3.90;64.00;;;;;;6283215;28;20123;-69
2022/01/25 06:13:18;;;;;;;17.45;9.68;;;4.00;64.00;;;;;;6302218;28;20118;-69
2022/01/25 06:16:19;;;;;;;26.02;9.70;;;4.00;63.90;;;;;;6302561;28;20039;-70
2022/01/25 06:19:20;;;;;;;28.10;11.02;;;4.00;63.80;;;;;;6320601;28;20028;-70
2022/01/25 06:22:22;;;;;;;21.35;10.73;;;4.00;63.80;;;;;;6320515;28;20357;-69
2022/01/25 06:25:23;;;;;;;32.17;12.48;;;4.00;63.80;;;;;;6320287;28;20040;-71
2022/01/25 06:28:24;;;;;;;25.92;10.40;;;4.00;63.80;;;;;;6318834;28;20024;-71
2022/01/25 06:31:27;;;;;;;25.38;11.13;;;4.10;63.80;;;;;;6282502;28;20039;-72
2022/01/25 06:34:28;;;;;;;38.60;11.13;;;4.10;63.70;;;;;;6296027;28;20043;-69
2022/01/25 06:37:30;;;;;;;31.80;9.80;;;4.20;63.50;;;;;;6302054;28;20055;-69
2022/01/25 06:40:31;;;;;;;24.00;10.07;;;4.10;63.40;;;;;;6281723;28;20024;-69
2022/01/25 06:43:32;;;;;;;21.10;9.43;;;4.20;63.50;;;;;;6301608;28;20086;-70
2022/01/25 06:46:33;;;;;;;18.75;9.55;;;4.20;63.40;;;;;;6285470;28;20104;-71
2022/01/25 06:49:35;;;;;;;24.13;10.80;;;4.20;63.40;;;;;;6301856;28;20063;-71
2022/01/25 06:52:38;;;;;;;23.23;9.43;;;4.20;63.30;;;;;;6319603;28;20028;-72
2022/01/25 06:55:41;;;;;;;24.60;10.23;;;4.20;63.20;;;;;;6300960;28;20353;-70
2022/01/25 06:58:42;;;;;;;20.48;9.10;;;4.20;63.00;;;;;;6317351;28;20027;-70
2022/01/25 07:01:43;;;;;;;26.42;9.80;;;4.10;63.80;;;;;;6301497;28;20035;-70
2022/01/25 07:04:44;;;;;;;33.00;12.05;;;4.10;63.10;;;;;;6301432;28;20032;-71
2022/01/25 07:07:47;;;;;;;26.05;11.57;;;4.10;63.20;;;;;;6301246;28;20032;-69
2022/01/25 07:10:48;;;;;;;23.30;11.07;;;4.10;63.30;;;;;;6319003;28;20048;-70
2022/01/25 07:13:49;;;;;;;27.25;11.40;;;4.10;63.40;;;;;;6300216;28;20439;-70
2022/01/25 07:16:51;;;;;;;27.70;11.80;;;4.10;63.40;;;;;;6300862;28;20481;-70
2022/01/25 07:19:52;;;;;;;32.50;12.18;;;4.20;63.40;;;;;;6300693;28;20044;-70
2022/01/25 07:22:53;;;;;;;30.80;11.68;;;4.20;63.20;;;;;;6300408;28;20031;-70
2022/01/25 07:25:54;;;;;;;25.70;9.77;;;4.20;63.00;;;;;;6284093;28;20143;-70
2022/01/25 07:28:55;;;;;;;26.58;11.88;;;4.30;62.90;;;;;;6300393;28;20031;-71
2022/01/25 07:31:56;;;;;;;33.80;12.50;;;4.30;62.80;;;;;;6317675;28;20020;-71
2022/01/25 07:34:57;;;;;;;40.70;14.18;;;4.30;62.70;;;;;;6317867;28;20103;-71
2022/01/25 07:37:59;;;;;;;30.10;11.55;;;4.30;62.50;;;;;;6283604;28;20032;-70
2022/01/25 07:41:00;;;;;;;27.55;11.38;;;4.30;62.50;;;;;;6300010;28;20064;-70
2022/01/25 07:44:02;;;;;;;30.40;13.35;;;4.30;62.40;;;;;;6283264;28;20118;-70
2022/01/25 07:47:03;;;;;;;25.13;11.57;;;4.30;62.30;;;;;;6317996;28;20077;-70
2022/01/25 07:50:06;;;;;;;36.10;10.95;;;4.30;62.30;;;;;;6297359;28;20103;-69
2022/01/25 07:53:07;;;;;;;32.10;11.32;;;4.30;62.30;;;;;;6299244;28;20028;-70
2022/01/25 07:56:08;;;;;;;31.30;11.88;;;4.30;62.30;;;;;;6317041;28;20123;-70
2022/01/25 07:59:09;;;;;;;32.45;11.40;;;4.30;62.30;;;;;;6317163;28;20302;-71
2022/01/25 08:02:16;;;;;;;33.38;12.85;;;4.30;62.10;;;;;;6299760;28;20095;-69
2022/01/25 08:05:19;;;;;;;36.33;13.88;;;4.30;62.00;;;;;;6317794;28;20108;-70
2022/01/25 08:08:20;;;;;;;31.80;13.05;;;4.30;62.00;;;;;;6316279;28;20031;-70
2022/01/25 08:11:21;;;;;;;22.85;11.55;;;4.30;62.00;;;;;;6299952;28;20028;-69
2022/01/25 08:14:22;;;;;;;36.88;13.75;;;4.40;62.10;;;;;;6279964;28;20111;-70
2022/01/25 08:17:23;;;;;;;38.17;12.18;;;4.40;62.00;;;;;;6317459;28;20024;-69
2022/01/25 08:20:24;;;;;;;32.17;13.52;;;4.40;62.00;;;;;;6317374;28;20119;-70
2022/01/25 08:23:25;;;;;;;36.88;13.48;;;4.40;62.10;;;;;;6299625;28;20032;-70
2022/01/25 08:26:26;;;;;;;31.27;11.07;;;4.50;62.20;;;;;;6282976;28;20071;-70
2022/01/25 08:29:27;;;;;;;31.52;12.65;;;4.50;62.20;;;;;;6317066;28;20024;-71
2022/01/25 08:32:28;;;;;;;39.13;14.20;;;4.50;62.10;;;;;;6300004;28;20523;-70
2022/01/25 08:35:29;;;;;;;26.40;11.88;;;4.60;62.10;;;;;;6298741;28;20032;-69
2022/01/25 08:38:30;;;;;;;39.50;13.95;;;4.70;62.20;;;;;;6297969;28;20028;-70
2022/01/25 08:41:32;;;;;;;45.72;13.98;;;4.70;62.10;;;;;;6316402;28;20024;-71
2022/01/25 08:44:35;;;;;;;40.63;12.88;;;4.80;62.00;;;;;;6317132;28;20654;-69
2022/01/25 08:47:36;;;;;;;33.80;11.20;;;4.80;61.70;;;;;;6302522;28;20028;-70
2022/01/25 08:50:37;;;;;;;29.55;11.77;;;4.90;62.40;;;;;;6303519;28;20062;-70
2022/01/25 08:53:38;;;;;;;33.00;13.48;;;5.00;61.50;;;;;;6304067;28;20043;-71
2022/01/25 08:56:41;;;;;;;44.30;14.98;;;5.10;61.40;;;;;;6321057;28;20457;-70
2022/01/25 08:59:42;;;;;;;22.70;10.85;;;5.20;61.20;;;;;;6321487;28;20020;-71
2022/01/25 09:02:43;;;;;;;33.65;13.93;;;5.20;60.90;;;;;;6303066;28;20467;-71
2022/01/25 09:05:44;;;;;;;31.92;11.00;;;5.30;60.60;;;;;;6321108;28;20024;-72
2022/01/25 09:08:45;;;;;;;30.33;11.73;;;5.40;60.40;;;;;;6321105;28;20032;-71
2022/01/25 09:11:47;;;;;;;33.45;13.45;;;5.40;60.10;;;;;;6303080;28;20024;-71
2022/01/25 09:14:48;;;;;;;34.13;12.85;;;5.50;59.90;;;;;;6321407;28;20016;-70
2022/01/25 09:17:49;;;;;;;31.80;10.98;;;5.50;59.80;;;;;;6303691;28;20402;-69
2022/01/25 09:20:51;;;;;;;32.65;13.88;;;5.60;59.70;;;;;;6320461;28;20038;-70
2022/01/25 09:23:53;;;;;;;29.23;11.18;;;5.70;59.70;;;;;;6321168;28;20051;-71
2022/01/25 09:26:54;;;;;;;43.30;11.60;;;5.80;59.60;;;;;;6321192;28;20039;-71
2022/01/25 09:29:55;;;;;;;41.78;18.50;;;5.90;59.20;;;;;;6286359;28;20032;-70
2022/01/25 09:32:57;;;;;;;29.92;12.80;;;5.90;59.10;;;;;;6320868;28;20221;-70
2022/01/25 09:35:59;;;;;;;38.97;14.00;;;6.00;58.90;;;;;;6302539;28;20067;-70
2022/01/25 09:39:00;;;;;;;30.23;11.75;;;6.00;58.80;;;;;;6302740;28;20035;-70
2022/01/25 09:42:04;;;;;;;37.70;12.45;;;6.00;58.80;;;;;;6302815;28;20024;-71
2022/01/25 09:45:06;;;;;;;28.63;11.65;;;6.10;58.80;;;;;;6312751;28;20056;-70
2022/01/25 09:48:09;;;;;;;33.38;13.60;;;6.30;58.80;;;;;;6302577;28;20028;-71
2022/01/25 09:51:11;;;;;;;33.47;11.82;;;6.40;58.60;;;;;;6302449;28;20040;-71
2022/01/25 09:54:12;;;;;;;37.13;12.13;;;6.40;58.50;;;;;;6320245;28;20028;-70
2022/01/25 09:57:13;;;;;;;36.60;14.07;;;6.60;58.40;;;;;;6300924;28;20070;-71
2022/01/25 10:00:19;;;;;;;27.15;12.77;;;6.60;57.90;;;;;;6320042;28;20016;-70
2022/01/25 10:03:25;;;;;;;53.70;18.80;;;6.60;57.70;;;;;;6320252;28;20087;-70
2022/01/25 10:06:32;;;;;;;44.97;16.02;;;6.70;57.80;;;;;;6320418;28;20032;-70
2022/01/25 10:09:33;;;;;;;39.92;13.63;;;6.70;57.90;;;;;;6302048;28;20652;-71
2022/01/25 10:12:34;;;;;;;34.30;14.40;;;6.70;57.90;;;;;;6314455;28;20032;-71
2022/01/25 10:15:35;;;;;;;44.00;18.38;;;6.80;57.70;;;;;;6319855;28;20074;-71
2022/01/25 10:18:53;;;;;;;41.97;14.38;;;7.00;57.60;;;;;;6285003;28;20102;-71
2022/01/25 10:22:00;;;;;;;32.90;14.43;;;7.40;57.30;;;;;;6301573;28;20077;-71
2022/01/25 10:25:01;;;;;;;27.33;13.25;;;7.70;56.60;;;;;;6301704;28;20473;-70
2022/01/25 10:28:06;;;;;;;39.88;15.25;;;8.00;55.80;;;;;;6277918;28;20032;-70
2022/01/25 10:31:07;;;;;;;46.00;19.05;;;8.20;55.30;;;;;;6278740;28;20066;-71
2022/01/25 10:34:10;;;;;;;32.42;12.98;;;8.40;54.90;;;;;;6301831;28;20095;-71
2022/01/25 10:37:23;;;;;;;40.88;16.85;;;8.50;54.40;;;;;;6319534;28;20050;-70
2022/01/25 10:40:37;;;;;;;38.50;15.70;;;8.70;54.10;;;;;;6318520;28;20024;-70
2022/01/25 10:43:40;;;;;;;39.90;16.27;;;8.90;53.70;;;;;;6312731;28;20031;-71
2022/01/25 10:46:41;;;;;;;34.97;14.00;;;9.10;53.70;;;;;;6300649;28;20039;-72
2022/01/25 10:49:44;;;;;;;32.55;15.65;;;9.30;53.30;;;;;;6300483;28;20437;-71
2022/01/25 10:52:47;;;;;;;26.23;12.88;;;9.60;52.80;;;;;;6318520;28;20051;-72
2022/01/25 10:55:53;;;;;;;32.92;13.77;;;9.90;51.80;;;;;;6300589;28;20028;-72
2022/01/25 10:59:02;;;;;;;43.65;17.77;;;10.10;50.40;;;;;;6317382;28;20024;-71
2022/01/25 11:02:06;;;;;;;31.25;13.18;;;10.30;50.20;;;;;;6318022;28;20039;-70
2022/01/25 11:05:09;;;;;;;39.83;15.55;;;10.50;50.00;;;;;;6300248;28;20020;-71
2022/01/25 11:08:16;;;;;;;37.42;14.50;;;10.80;49.50;;;;;;6299427;28;20028;-72
2022/01/25 11:11:40;;;;;;;28.42;12.63;;;11.00;48.90;;;;;;6282986;28;20024;-71
2022/01/25 11:14:53;;;;;;;40.65;16.77;;;11.30;48.30;;;;;;6300262;28;20020;-71
2022/01/25 11:17:54;;;;;;;32.63;15.80;;;11.60;47.90;;;;;;6300497;28;20028;-71
2022/01/25 11:20:57;;;;;;;35.92;16.33;;;12.00;47.30;;;;;;6300586;28;20035;-71
2022/01/25 11:23:58;;;;;;;42.85;17.38;;;12.40;46.60;;;;;;6299982;28;20048;-72
2022/01/25 11:27:05;;;;;;;45.30;17.80;;;12.70;45.50;;;;;;6299552;28;20028;-71
2022/01/25 11:30:11;;;;;;;47.60;19.80;;;13.10;44.60;;;;;;6299460;28;20031;-72
2022/01/25 11:33:13;;;;;;;41.80;18.10;;;13.40;43.90;;;;;;6299612;28;20032;-72
2022/01/25 11:36:15;;;;;;;54.60;19.02;;;13.80;43.20;;;;;;6317152;28;20032;-71
2022/01/25 11:39:19;;;;;;;41.50;15.18;;;14.30;42.00;;;;;;6278244;28;20032;-71
2022/01/25 11:42:25;;;;;;;28.25;13.55;;;14.80;40.80;;;;;;6299041;28;20089;-71
2022/01/25 11:45:32;;;;;;;41.20;17.95;;;15.10;39.60;;;;;;6298943;28;20024;-72
2022/01/25 11:48:43;;;;;;;53.65;21.55;;;15.50;39.30;;;;;;6299136;28;20046;-71
2022/01/25 11:51:46;;;;;;;26.67;13.50;;;15.80;38.70;;;;;;6317464;28;20025;-73
2022/01/25 11:54:51;;;;;;;28.75;12.63;;;16.20;37.70;;;;;;6299166;28;20024;-71
2022/01/25 11:57:56;;;;;;;32.75;13.02;;;16.40;36.70;;;;;;6316190;28;20028;-71
2022/01/25 12:01:00;;;;;;;24.55;10.80;;;16.80;36.00;;;;;;6317399;28;20468;-71
2022/01/25 12:04:05;;;;;;;23.65;11.30;;;17.10;35.10;;;;;;6316166;28;20400;-71
2022/01/25 12:07:24;;;;;;;31.50;14.73;;;17.30;34.30;;;;;;6295039;28;20028;-70
2022/01/25 12:10:33;;;;;;;27.77;10.77;;;17.30;33.70;;;;;;6298684;28;20126;-71
2022/01/25 12:13:34;;;;;;;25.77;10.48;;;16.80;34.40;;;;;;6298776;28;20113;-71
2022/01/25 12:16:43;;;;;;;16.40;8.10;;;16.10;35.40;;;;;;6311942;28;20020;-72
2022/01/25 12:19:53;;;;;;;26.15;9.43;;;15.50;36.10;;;;;;6299199;28;20024;-72
2022/01/25 12:23:18;;;;;;;22.95;9.18;;;14.90;37.40;;;;;;6293212;28;20024;-71
2022/01/25 12:27:45;;;;;;;27.33;10.73;;;14.40;38.20;;;;;;6298875;28;20287;-72
2022/01/25 12:30:26;;;;;;;21.00;9.40;;;13.90;38.90;;;;;;6302975;28;20067;-71
2022/01/25 12:33:29;;;;;;;26.85;9.90;;;13.60;39.50;;;;;;6298163;28;20567;-72
2022/01/25 12:36:35;;;;;;;36.70;10.02;;;13.40;40.00;;;;;;6295785;28;20039;-70
2022/01/25 12:39:36;;;;;;;19.88;8.82;;;13.20;40.30;;;;;;6281332;28;20025;-70
2022/01/25 12:42:38;;;;;;;24.70;9.60;;;13.00;40.50;;;;;;6298983;28;20032;-70
2022/01/25 12:46:10;;;;;;;22.38;7.85;;;12.80;40.40;;;;;;6315850;28;20024;-71
2022/01/25 12:49:15;;;;;;;23.58;7.78;;;12.60;40.60;;;;;;6298843;28;20431;-71
2022/01/25 12:52:17;;;;;;;29.70;7.88;;;12.40;40.70;;;;;;6281515;28;20369;-71
2022/01/25 12:55:28;;;;;;;19.92;7.78;;;12.20;40.80;;;;;;6281609;28;20039;-71
2022/01/25 12:58:30;;;;;;;16.80;6.13;;;12.00;40.90;;;;;;6297339;28;20020;-71
2022/01/25 13:01:32;;;;;;;27.02;8.07;;;12.00;41.10;;;;;;6281544;28;20051;-72
2022/01/25 13:04:33;;;;;;;19.65;8.35;;;11.90;41.40;;;;;;6298523;28;20101;-72
2022/01/25 13:07:34;;;;;;;17.45;7.65;;;11.80;41.80;;;;;;6314898;28;20039;-71
2022/01/25 13:10:36;;;;;;;21.92;10.05;;;11.80;42.00;;;;;;6294444;28;20086;-71
2022/01/25 13:13:58;;;;;;;18.40;8.63;;;11.80;42.10;;;;;;6298566;28;20028;-72
2022/01/25 13:17:14;;;;;;;20.00;8.40;;;11.80;42.30;;;;;;6298511;28;20028;-72
2022/01/25 13:20:20;;;;;;;35.13;9.85;;;11.80;42.70;;;;;;6292813;28;20039;-71
2022/01/25 13:23:21;;;;;;;29.48;11.05;;;11.80;42.80;;;;;;6297212;28;20484;-71
2022/01/25 13:26:23;;;;;;;26.13;11.13;;;11.80;43.10;;;;;;6314649;28;20119;-71
2022/01/25 13:32:52;;;;;;;27.52;11.10;;;11.80;43.60;;;;;;6297001;28;20028;-72
2022/01/25 13:35:56;;;;;;;23.42;10.18;;;11.80;43.70;;;;;;6301887;28;20108;-72
2022/01/25 13:38:58;;;;;;;27.08;11.60;;;11.90;43.70;;;;;;6302041;28;20020;-71
2022/01/25 13:42:04;;;;;;;22.23;9.35;;;11.90;43.80;;;;;;6320156;28;20055;-72
2022/01/25 13:48:36;;;;;;;31.02;10.35;;;11.90;43.90;;;;;;6320028;28;20058;-71
2022/01/25 13:51:44;;;;;;;19.38;8.65;;;11.90;43.90;;;;;;6319661;28;20419;-71
2022/01/25 13:54:45;;;;;;;23.90;8.77;;;11.90;43.80;;;;;;6285263;28;20024;-71
2022/01/25 13:57:46;;;;;;;22.88;8.80;;;11.90;43.80;;;;;;6312287;28;20401;-71
2022/01/25 14:00:48;;;;;;;25.27;8.98;;;12.00;43.90;;;;;;6319469;28;20457;-72
2022/01/25 14:03:58;;;;;;;24.98;10.10;;;12.00;43.80;;;;;;6301578;28;20024;-71
2022/01/25 14:07:01;;;;;;;20.92;8.98;;;12.00;43.70;;;;;;6301795;28;20028;-72
2022/01/25 14:10:10;;;;;;;21.15;10.35;;;12.10;43.80;;;;;;6317363;28;20114;-72
2022/01/25 14:26:29;;;;;;;20.63;8.00;;;12.00;43.40;;;;;;6318740;28;20588;-72
2022/01/25 14:29:30;;;;;;;19.37;9.03;;;12.00;43.40;;;;;;6318917;28;20035;-72
2022/01/25 14:32:35;;;;;;;20.98;7.75;;;12.00;43.40;;;;;;6315300;28;20266;-70
2022/01/25 14:35:46;;;;;;;20.85;8.13;;;12.10;43.50;;;;;;6284181;28;20028;-72
2022/01/25 14:38:48;;;;;;;16.75;8.40;;;12.10;43.40;;;;;;6300569;28;20028;-71
2022/01/25 14:41:49;;;;;;;19.80;8.18;;;12.10;43.40;;;;;;6301033;28;20641;-71
2022/01/25 14:44:51;;;;;;;17.65;7.72;;;12.10;43.40;;;;;;6299192;28;20141;-71
2022/01/25 14:47:54;;;;;;;24.10;8.48;;;12.10;43.40;;;;;;6318495;28;20028;-71
2022/01/25 14:50:59;;;;;;;17.80;7.65;;;12.10;43.40;;;;;;6283766;28;20382;-70
2022/01/25 14:54:00;;;;;;;21.50;8.10;;;12.10;43.30;;;;;;6300261;28;20031;-71
2022/01/25 14:57:07;;;;;;;15.00;7.07;;;12.10;43.30;;;;;;6300055;28;20567;-71
2022/01/25 15:00:08;;;;;;;19.48;7.63;;;12.10;43.10;;;;;;6316890;28;20020;-71
2022/01/25 15:03:09;;;;;;;20.75;8.23;;;12.10;43.10;;;;;;6300086;28;20517;-72
2022/01/25 15:06:15;;;;;;;19.33;7.43;;;12.10;43.20;;;;;;6300099;28;20201;-71
2022/01/25 15:09:17;;;;;;;16.58;7.35;;;12.10;43.30;;;;;;6298762;28;20032;-72
2022/01/25 15:12:21;;;;;;;17.13;7.50;;;12.10;43.20;;;;;;6317766;28;20035;-72
2022/01/25 15:15:26;;;;;;;12.20;6.18;;;12.10;43.00;;;;;;6317991;28;20089;-71
2022/01/25 15:18:36;;;;;;;19.17;7.20;;;12.10;43.00;;;;;;6283229;28;20027;-70
2022/01/25 15:21:37;;;;;;;15.75;8.13;;;12.10;42.80;;;;;;6317971;28;20086;-71
2022/01/25 15:24:41;;;;;;;14.70;7.60;;;12.10;42.60;;;;;;6291489;28;20392;-72
2022/01/25 15:27:43;;;;;;;19.88;7.68;;;12.10;42.70;;;;;;6291193;28;20036;-71
2022/01/25 15:30:44;;;;;;;18.42;8.70;;;12.10;42.70;;;;;;6291466;28;20047;-70
2022/01/25 15:33:49;;;;;;;25.88;8.13;;;12.10;42.90;;;;;;6274570;28;20020;-72
2022/01/25 15:36:50;;;;;;;21.83;7.30;;;12.10;42.90;;;;;;6291474;28;20043;-71
2022/01/25 15:39:51;;;;;;;19.10;7.85;;;12.00;43.00;;;;;;6291631;28;20062;-71
2022/01/25 15:42:52;;;;;;;19.23;8.68;;;12.00;42.60;;;;;;6273813;28;20405;-71
2022/01/25 15:46:01;;;;;;;25.73;8.30;;;12.00;43.10;;;;;;6290875;28;20039;-71
2022/01/25 15:49:05;;;;;;;17.33;8.00;;;12.00;43.20;;;;;;6291072;28;20024;-71
2022/01/25 15:52:07;;;;;;;22.10;8.35;;;12.00;43.30;;;;;;6274973;28;20062;-71
2022/01/25 15:55:09;;;;;;;19.80;8.50;;;11.90;43.30;;;;;;6291586;28;20108;-70
2022/01/25 15:58:10;;;;;;;21.17;8.43;;;12.00;43.40;;;;;;6290955;28;20032;-70
2022/01/25 16:01:12;;;;;;;17.27;7.47;;;11.90;43.40;;;;;;6289656;28;20047;-70
2022/01/25 16:04:14;;;;;;;14.63;7.20;;;11.90;43.50;;;;;;6291902;28;20578;-70
2022/01/25 16:07:15;;;;;;;16.00;8.13;;;11.80;43.50;;;;;;6289171;28;20119;-71
2022/01/25 16:10:18;;;;;;;23.50;7.70;;;11.80;43.60;;;;;;6273234;28;20051;-70
2022/01/25 16:13:19;;;;;;;17.35;7.10;;;11.70;43.60;;;;;;6291123;28;20021;-71
2022/01/25 16:16:20;;;;;;;21.05;7.82;;;11.70;43.70;;;;;;6290932;28;20043;-71
2022/01/25 16:19:21;;;;;;;20.27;6.90;;;11.70;43.70;;;;;;6273602;28;20039;-70
2022/01/25 16:22:22;;;;;;;20.33;8.13;;;11.60;43.70;;;;;;6289847;28;20020;-70
2022/01/25 16:25:24;;;;;;;19.77;8.00;;;11.60;43.70;;;;;;6278769;28;20068;-71
2022/01/25 16:28:25;;;;;;;18.98;6.68;;;11.60;43.80;;;;;;6274483;28;20032;-71
2022/01/25 16:31:32;;;;;;;23.40;7.50;;;11.50;43.80;;;;;;6289649;28;20029;-71
2022/01/25 16:34:34;;;;;;;19.27;7.70;;;11.50;44.00;;;;;;6290742;28;20043;-71
2022/01/25 16:37:35;;;;;;;20.13;8.45;;;11.50;44.00;;;;;;6290286;28;20036;-70
2022/01/25 16:40:37;;;;;;;18.08;7.45;;;11.40;44.00;;;;;;6291213;28;20039;-70
2022/01/25 16:43:39;;;;;;;31.88;8.07;;;11.40;44.10;;;;;;6290650;28;20035;-70
2022/01/25 16:46:42;;;;;;;31.20;9.35;;;11.30;44.10;;;;;;6290227;28;20051;-70
2022/01/25 16:49:43;;;;;;;30.73;8.00;;;11.30;44.20;;;;;;6299570;28;20024;-70
2022/01/25 16:52:44;;;;;;;22.73;8.73;;;11.20;44.40;;;;;;6290054;28;20029;-71
2022/01/25 16:55:45;;;;;;;26.98;8.30;;;11.20;44.50;;;;;;6272339;28;20025;-72
2022/01/25 16:58:47;;;;;;;21.95;8.65;;;11.10;44.60;;;;;;6291189;28;20032;-70
2022/01/25 17:01:48;;;;;;;25.67;8.18;;;11.00;44.70;;;;;;6288975;28;20107;-70
2022/01/25 17:04:50;;;;;;;23.77;10.27;;;11.00;44.80;;;;;;6290992;28;20102;-71
2022/01/25 17:07:54;;;;;;;36.35;9.23;;;11.00;45.00;;;;;;6288207;28;20075;-72
2022/01/25 17:10:55;;;;;;;16.55;7.68;;;10.90;45.00;;;;;;6278013;28;20107;-71
2022/01/25 17:13:56;;;;;;;18.75;8.10;;;10.90;45.10;;;;;;6294938;28;20032;-72
2022/01/25 17:16:57;;;;;;;21.98;8.38;;;10.90;45.20;;;;;;6295505;28;20035;-71
2022/01/25 17:19:58;;;;;;;25.48;7.90;;;10.80;45.20;;;;;;6295822;28;20025;-72
2022/01/25 17:22:59;;;;;;;23.08;8.18;;;10.80;45.30;;;;;;6294312;28;20025;-71
2022/01/25 17:26:00;;;;;;;38.17;12.85;;;10.80;45.40;;;;;;6286357;28;20047;-71
2022/01/25 17:29:02;;;;;;;46.88;17.30;;;10.70;45.50;;;;;;6319721;28;20099;-71
2022/01/25 17:32:05;;;;;;;35.70;14.05;;;10.70;45.60;;;;;;6319926;28;20659;-71
2022/01/25 17:35:07;;;;;;;29.13;9.27;;;10.70;45.70;;;;;;6320776;28;20103;-71
2022/01/25 17:38:10;;;;;;;17.50;7.57;;;10.60;45.70;;;;;;6314737;28;20098;-72
2022/01/25 17:41:11;;;;;;;28.05;8.50;;;10.60;45.70;;;;;;6285212;28;20119;-71
2022/01/25 17:44:13;;;;;;;20.75;7.20;;;10.50;45.70;;;;;;6302167;28;20024;-71
2022/01/25 17:47:14;;;;;;;16.10;6.80;;;10.50;45.70;;;;;;6285944;28;20028;-71